sensor_id;sensor_type;location;lat;lon;timestamp;pressure;altitude;pressure_sealevel;temperature;humidity
35023;BME280;21214;44.912;8.204;2022-08-03T00:00:40;99741.25;;;24.22;100.00
35023;BME280;21214;44.912;8.204;2022-08-03T00:03:06;99739.91;;;23.94;100.00
35023;BME280;21214;44.912;8.204;2022-08-03T00:05:32;99740.03;;;23.81;100.00
35023;BME280;21214;44.912;8.204;2022-08-03T00:07:59;99736.78;;;23.79;100.00
35023;BME280;21214;44.912;8.204;2022-08-03T00:10:25;99742.31;;;23.84;100.00
35023;BME280;21214;44.912;8.204;2022-08-03T00:12:51;99739.06;;;23.94;100.00
35023;BME280;21214;44.912;8.204;2022-08-03T00:15:17;99747.22;;;24.05;100.00
35023;BME280;21214;44.912;8.204;2022-08-03T00:17:44;99739.75;;;24.07;100.00
35023;BME280;21214;44.912;8.204;2022-08-03T00:20:10;99748.00;;;24.13;100.00
35023;BME280;21214;44.912;8.204;2022-08-03T00:22:36;99750.41;;;24.21;100.00
35023;BME280;21214;44.912;8.204;2022-08-03T00:25:02;99744.19;;;24.20;100.00
35023;BME280;21214;44.912;8.204;2022-08-03T00:27:28;99750.06;;;24.11;100.00
35023;BME280;21214;44.912;8.204;2022-08-03T00:29:53;99743.63;;;23.93;100.00
35023;BME280;21214;44.912;8.204;2022-08-03T00:32:19;99752.53;;;23.76;100.00
35023;BME280;21214;44.912;8.204;2022-08-03T00:34:45;99752.59;;;23.69;100.00
35023;BME280;21214;44.912;8.204;2022-08-03T00:37:10;99748.44;;;23.73;100.00
35023;BME280;21214;44.912;8.204;2022-08-03T00:39:36;99754.56;;;23.80;100.00
35023;BME280;21214;44.912;8.204;2022-08-03T00:42:05;99737.50;;;23.86;100.00
35023;BME280;21214;44.912;8.204;2022-08-03T00:44:31;99744.09;;;23.90;100.00
35023;BME280;21214;44.912;8.204;2022-08-03T00:47:03;99746.94;;;23.95;100.00
35023;BME280;21214;44.912;8.204;2022-08-03T00:49:29;99745.38;;;23.88;100.00
35023;BME280;21214;44.912;8.204;2022-08-03T00:51:55;99751.28;;;23.78;100.00
35023;BME280;21214;44.912;8.204;2022-08-03T00:54:20;99744.53;;;23.69;100.00
35023;BME280;21214;44.912;8.204;2022-08-03T00:56:47;99741.84;;;23.44;100.00
35023;BME280;21214;44.912;8.204;2022-08-03T00:59:14;99747.72;;;23.35;100.00
35023;BME280;21214;44.912;8.204;2022-08-03T01:01:40;99742.78;;;23.32;100.00
35023;BME280;21214;44.912;8.204;2022-08-03T01:04:06;99740.84;;;23.39;100.00
35023;BME280;21214;44.912;8.204;2022-08-03T01:06:37;99735.41;;;23.45;100.00
35023;BME280;21214;44.912;8.204;2022-08-03T01:09:22;99738.00;;;23.34;100.00
35023;BME280;21214;44.912;8.204;2022-08-03T01:12:34;99738.06;;;23.02;100.00
35023;BME280;21214;44.912;8.204;2022-08-03T01:15:16;99738.31;;;22.94;100.00
35023;BME280;21214;44.912;8.204;2022-08-03T01:20:37;99731.28;;;22.93;100.00
35023;BME280;21214;44.912;8.204;2022-08-03T01:31:41;99735.00;;;22.92;100.00
35023;BME280;21214;44.912;8.204;2022-08-03T01:34:09;99734.59;;;22.95;100.00
35023;BME280;21214;44.912;8.204;2022-08-03T01:36:42;99729.22;;;22.95;100.00
35023;BME280;21214;44.912;8.204;2022-08-03T01:39:11;99726.69;;;23.00;100.00
35023;BME280;21214;44.912;8.204;2022-08-03T01:41:58;99728.66;;;23.11;100.00
35023;BME280;21214;44.912;8.204;2022-08-03T01:44:29;99726.53;;;23.20;100.00
35023;BME280;21214;44.912;8.204;2022-08-03T01:47:00;99728.09;;;23.27;100.00
35023;BME280;21214;44.912;8.204;2022-08-03T01:49:29;99726.19;;;23.35;100.00
35023;BME280;21214;44.912;8.204;2022-08-03T01:51:57;99725.25;;;23.22;100.00
35023;BME280;21214;44.912;8.204;2022-08-03T01:54:24;99728.16;;;23.21;100.00
35023;BME280;21214;44.912;8.204;2022-08-03T01:56:53;99733.13;;;23.24;100.00
35023;BME280;21214;44.912;8.204;2022-08-03T01:59:21;99727.94;;;23.22;100.00
35023;BME280;21214;44.912;8.204;2022-08-03T02:01:50;99731.47;;;23.23;100.00
35023;BME280;21214;44.912;8.204;2022-08-03T02:04:18;99733.94;;;23.24;100.00
35023;BME280;21214;44.912;8.204;2022-08-03T02:06:47;99734.97;;;23.23;100.00
35023;BME280;21214;44.912;8.204;2022-08-03T02:09:14;99729.44;;;23.18;100.00
35023;BME280;21214;44.912;8.204;2022-08-03T02:11:42;99727.38;;;23.20;100.00
35023;BME280;21214;44.912;8.204;2022-08-03T02:14:08;99734.81;;;23.18;100.00
35023;BME280;21214;44.912;8.204;2022-08-03T02:16:36;99734.06;;;23.11;100.00
35023;BME280;21214;44.912;8.204;2022-08-03T02:19:04;99738.69;;;22.98;100.00
35023;BME280;21214;44.912;8.204;2022-08-03T02:21:35;99737.53;;;22.87;100.00
35023;BME280;21214;44.912;8.204;2022-08-03T02:24:02;99736.16;;;22.78;100.00
35023;BME280;21214;44.912;8.204;2022-08-03T02:26:29;99740.94;;;22.76;100.00
35023;BME280;21214;44.912;8.204;2022-08-03T02:29:01;99730.63;;;22.73;100.00
35023;BME280;21214;44.912;8.204;2022-08-03T02:31:30;99724.38;;;22.79;100.00
35023;BME280;21214;44.912;8.204;2022-08-03T02:34:03;99736.34;;;22.83;100.00
35023;BME280;21214;44.912;8.204;2022-08-03T02:36:34;99728.44;;;22.88;100.00
35023;BME280;21214;44.912;8.204;2022-08-03T02:39:01;99735.25;;;22.91;100.00
35023;BME280;21214;44.912;8.204;2022-08-03T02:41:37;99731.50;;;22.92;100.00
35023;BME280;21214;44.912;8.204;2022-08-03T02:44:07;99725.91;;;22.93;100.00
35023;BME280;21214;44.912;8.204;2022-08-03T02:46:37;99725.50;;;22.96;100.00
35023;BME280;21214;44.912;8.204;2022-08-03T02:49:03;99726.31;;;22.97;100.00
35023;BME280;21214;44.912;8.204;2022-08-03T02:51:32;99727.16;;;22.97;100.00
35023;BME280;21214;44.912;8.204;2022-08-03T02:54:03;99732.31;;;22.92;100.00
35023;BME280;21214;44.912;8.204;2022-08-03T02:56:29;99730.91;;;22.90;100.00
35023;BME280;21214;44.912;8.204;2022-08-03T02:58:57;99734.63;;;22.89;100.00
35023;BME280;21214;44.912;8.204;2022-08-03T03:01:24;99739.66;;;22.85;100.00
35023;BME280;21214;44.912;8.204;2022-08-03T03:03:52;99738.66;;;22.79;100.00
35023;BME280;21214;44.912;8.204;2022-08-03T03:06:20;99738.44;;;22.74;100.00
35023;BME280;21214;44.912;8.204;2022-08-03T03:08:46;99733.09;;;22.68;100.00
35023;BME280;21214;44.912;8.204;2022-08-03T03:11:13;99732.91;;;22.63;100.00
35023;BME280;21214;44.912;8.204;2022-08-03T03:13:41;99732.69;;;22.64;100.00
35023;BME280;21214;44.912;8.204;2022-08-03T03:16:08;99726.50;;;22.64;100.00
35023;BME280;21214;44.912;8.204;2022-08-03T03:18:35;99727.94;;;22.66;100.00
35023;BME280;21214;44.912;8.204;2022-08-03T03:21:03;99728.16;;;22.65;100.00
35023;BME280;21214;44.912;8.204;2022-08-03T03:23:30;99729.78;;;22.72;100.00
35023;BME280;21214;44.912;8.204;2022-08-03T03:25:56;99723.81;;;22.64;100.00
35023;BME280;21214;44.912;8.204;2022-08-03T03:28:24;99719.91;;;22.60;100.00
35023;BME280;21214;44.912;8.204;2022-08-03T03:30:50;99725.91;;;22.62;100.00
35023;BME280;21214;44.912;8.204;2022-08-03T03:33:16;99726.94;;;22.61;100.00
35023;BME280;21214;44.912;8.204;2022-08-03T03:35:42;99731.03;;;22.63;100.00
35023;BME280;21214;44.912;8.204;2022-08-03T03:38:11;99728.16;;;22.65;100.00
35023;BME280;21214;44.912;8.204;2022-08-03T03:40:37;99723.59;;;22.65;100.00
35023;BME280;21214;44.912;8.204;2022-08-03T03:43:07;99728.16;;;22.65;100.00
35023;BME280;21214;44.912;8.204;2022-08-03T03:45:34;99732.31;;;22.61;100.00
35023;BME280;21214;44.912;8.204;2022-08-03T03:48:04;99732.72;;;22.58;100.00
35023;BME280;21214;44.912;8.204;2022-08-03T03:50:34;99734.38;;;22.59;100.00
35023;BME280;21214;44.912;8.204;2022-08-03T03:53:00;99738.72;;;22.60;100.00
35023;BME280;21214;44.912;8.204;2022-08-03T03:55:27;99750.53;;;22.59;100.00
35023;BME280;21214;44.912;8.204;2022-08-03T03:57:53;99745.59;;;22.56;100.00
35023;BME280;21214;44.912;8.204;2022-08-03T04:00:19;99742.13;;;22.49;100.00
35023;BME280;21214;44.912;8.204;2022-08-03T04:02:45;99741.94;;;22.43;100.00
35023;BME280;21214;44.912;8.204;2022-08-03T04:05:11;99752.31;;;22.33;100.00
35023;BME280;21214;44.912;8.204;2022-08-03T04:08:04;99749.69;;;22.20;100.00
35023;BME280;21214;44.912;8.204;2022-08-03T04:13:39;99758.63;;;22.08;100.00
35023;BME280;21214;44.912;8.204;2022-08-03T04:16:07;99755.72;;;22.09;100.00
35023;BME280;21214;44.912;8.204;2022-08-03T04:18:35;99759.63;;;22.13;100.00
35023;BME280;21214;44.912;8.204;2022-08-03T04:21:08;99754.84;;;22.15;100.00
35023;BME280;21214;44.912;8.204;2022-08-03T04:23:40;99761.47;;;22.19;100.00
35023;BME280;21214;44.912;8.204;2022-08-03T04:26:10;99762.31;;;22.20;100.00
35023;BME280;21214;44.912;8.204;2022-08-03T04:28:38;99760.22;;;22.15;100.00
35023;BME280;21214;44.912;8.204;2022-08-03T04:31:05;99760.69;;;22.12;100.00
35023;BME280;21214;44.912;8.204;2022-08-03T04:33:33;99764.84;;;22.08;100.00
35023;BME280;21214;44.912;8.204;2022-08-03T04:36:01;99766.91;;;22.06;100.00
35023;BME280;21214;44.912;8.204;2022-08-03T04:38:30;99767.09;;;22.04;100.00
35023;BME280;21214;44.912;8.204;2022-08-03T04:40:58;99764.84;;;22.08;100.00
35023;BME280;21214;44.912;8.204;2022-08-03T04:43:26;99771.44;;;22.12;100.00
35023;BME280;21214;44.912;8.204;2022-08-03T04:45:54;99774.31;;;22.11;100.00
35023;BME280;21214;44.912;8.204;2022-08-03T04:48:21;99773.94;;;22.07;100.00
35023;BME280;21214;44.912;8.204;2022-08-03T04:50:47;99773.13;;;21.87;100.00
35023;BME280;21214;44.912;8.204;2022-08-03T04:53:13;99776.41;;;21.89;100.00
35023;BME280;21214;44.912;8.204;2022-08-03T04:55:38;99778.91;;;21.90;100.00
35023;BME280;21214;44.912;8.204;2022-08-03T04:58:05;99780.56;;;21.98;100.00
35023;BME280;21214;44.912;8.204;2022-08-03T05:00:31;99781.38;;;22.05;100.00
35023;BME280;21214;44.912;8.204;2022-08-03T05:02:57;99784.03;;;22.12;100.00
35023;BME280;21214;44.912;8.204;2022-08-03T05:05:23;99786.69;;;22.18;100.00
35023;BME280;21214;44.912;8.204;2022-08-03T05:07:49;99788.34;;;22.19;100.00
35023;BME280;21214;44.912;8.204;2022-08-03T05:10:15;99777.59;;;22.26;100.00
35023;BME280;21214;44.912;8.204;2022-08-03T05:12:41;99782.94;;;22.32;100.00
35023;BME280;21214;44.912;8.204;2022-08-03T05:15:07;99787.03;;;22.41;100.00
35023;BME280;21214;44.912;8.204;2022-08-03T05:17:33;99787.00;;;22.48;100.00
35023;BME280;21214;44.912;8.204;2022-08-03T05:19:59;99788.84;;;22.54;100.00
35023;BME280;21214;44.912;8.204;2022-08-03T05:22:25;99794.81;;;22.56;100.00
35023;BME280;21214;44.912;8.204;2022-08-03T05:24:51;99801.63;;;22.59;100.00
35023;BME280;21214;44.912;8.204;2022-08-03T05:27:17;99794.78;;;22.63;100.00
35023;BME280;21214;44.912;8.204;2022-08-03T05:29:47;99795.78;;;22.68;100.00
35023;BME280;21214;44.912;8.204;2022-08-03T05:32:14;99801.59;;;22.72;100.00
35023;BME280;21214;44.912;8.204;2022-08-03T05:34:40;99802.19;;;22.74;100.00
35023;BME280;21214;44.912;8.204;2022-08-03T05:37:06;99800.94;;;22.76;100.00
35023;BME280;21214;44.912;8.204;2022-08-03T05:39:32;99806.50;;;22.81;100.00
35023;BME280;21214;44.912;8.204;2022-08-03T05:41:58;99799.88;;;22.84;100.00
35023;BME280;21214;44.912;8.204;2022-08-03T05:44:23;99807.94;;;22.84;100.00
35023;BME280;21214;44.912;8.204;2022-08-03T05:46:50;99814.19;;;22.71;100.00
35023;BME280;21214;44.912;8.204;2022-08-03T05:49:17;99812.38;;;22.72;100.00
35023;BME280;21214;44.912;8.204;2022-08-03T05:51:43;99807.97;;;22.77;100.00
35023;BME280;21214;44.912;8.204;2022-08-03T05:54:09;99813.09;;;22.85;100.00
35023;BME280;21214;44.912;8.204;2022-08-03T05:56:34;99816.81;;;22.91;100.00
35023;BME280;21214;44.912;8.204;2022-08-03T05:59:00;99813.69;;;22.94;100.00
35023;BME280;21214;44.912;8.204;2022-08-03T06:01:26;99812.03;;;22.93;100.00
35023;BME280;21214;44.912;8.204;2022-08-03T06:03:51;99806.69;;;22.86;100.00
35023;BME280;21214;44.912;8.204;2022-08-03T06:06:17;99804.78;;;22.94;100.00
35023;BME280;21214;44.912;8.204;2022-08-03T06:08:43;99812.38;;;23.03;100.00
35023;BME280;21214;44.912;8.204;2022-08-03T06:11:09;99813.09;;;23.17;100.00
35023;BME280;21214;44.912;8.204;2022-08-03T06:13:37;99808.47;;;23.31;100.00
35023;BME280;21214;44.912;8.204;2022-08-03T06:16:03;99814.16;;;23.41;100.00
35023;BME280;21214;44.912;8.204;2022-08-03T06:18:29;99812.91;;;23.50;100.00
35023;BME280;21214;44.912;8.204;2022-08-03T06:20:55;99819.44;;;23.60;100.00
35023;BME280;21214;44.912;8.204;2022-08-03T06:23:21;99806.50;;;23.69;100.00
35023;BME280;21214;44.912;8.204;2022-08-03T06:25:47;99812.03;;;23.74;100.00
35023;BME280;21214;44.912;8.204;2022-08-03T06:28:12;99814.47;;;23.82;100.00
35023;BME280;21214;44.912;8.204;2022-08-03T06:30:39;99816.25;;;23.88;100.00
35023;BME280;21214;44.912;8.204;2022-08-03T06:33:04;99825.31;;;23.94;100.00
35023;BME280;21214;44.912;8.204;2022-08-03T06:35:32;99829.81;;;24.00;100.00
35023;BME280;21214;44.912;8.204;2022-08-03T06:37:57;99832.88;;;24.03;100.00
35023;BME280;21214;44.912;8.204;2022-08-03T06:40:23;99834.31;;;24.06;100.00
35023;BME280;21214;44.912;8.204;2022-08-03T06:43:00;99838.81;;;24.12;100.00
35023;BME280;21214;44.912;8.204;2022-08-03T06:45:26;99843.72;;;24.22;100.00
35023;BME280;21214;44.912;8.204;2022-08-03T06:48:13;99848.22;;;24.28;100.00
35023;BME280;21214;44.912;8.204;2022-08-03T06:50:40;99846.88;;;24.37;100.00
35023;BME280;21214;44.912;8.204;2022-08-03T06:53:06;99849.13;;;24.40;100.00
35023;BME280;21214;44.912;8.204;2022-08-03T06:55:33;99843.44;;;24.48;100.00
35023;BME280;21214;44.912;8.204;2022-08-03T06:57:59;99851.22;;;24.56;100.00
35023;BME280;21214;44.912;8.204;2022-08-03T07:00:24;99852.56;;;24.65;100.00
35023;BME280;21214;44.912;8.204;2022-08-03T07:02:51;99854.34;;;24.71;100.00
35023;BME280;21214;44.912;8.204;2022-08-03T07:05:16;99853.88;;;24.74;99.92
35023;BME280;21214;44.912;8.204;2022-08-03T07:07:44;99854.19;;;24.84;99.93
35023;BME280;21214;44.912;8.204;2022-08-03T07:10:11;99859.88;;;24.95;99.43
35023;BME280;21214;44.912;8.204;2022-08-03T07:12:37;99860.41;;;25.03;98.80
35023;BME280;21214;44.912;8.204;2022-08-03T07:15:04;99860.88;;;25.12;98.08
35023;BME280;21214;44.912;8.204;2022-08-03T07:17:32;99861.13;;;25.22;97.37
35023;BME280;21214;44.912;8.204;2022-08-03T07:20:00;99866.69;;;25.27;96.60
35023;BME280;21214;44.912;8.204;2022-08-03T07:22:26;99863.53;;;25.30;95.40
35023;BME280;21214;44.912;8.204;2022-08-03T07:24:53;99867.53;;;25.39;95.14
35023;BME280;21214;44.912;8.204;2022-08-03T07:27:19;99859.69;;;25.38;94.25
35023;BME280;21214;44.912;8.204;2022-08-03T07:29:44;99868.25;;;25.46;94.61
35023;BME280;21214;44.912;8.204;2022-08-03T07:32:10;99866.88;;;25.55;93.82
35023;BME280;21214;44.912;8.204;2022-08-03T07:34:36;99863.63;;;25.65;93.30
35023;BME280;21214;44.912;8.204;2022-08-03T07:37:02;99868.22;;;25.76;92.59
35023;BME280;21214;44.912;8.204;2022-08-03T07:39:27;99868.81;;;25.90;92.74
35023;BME280;21214;44.912;8.204;2022-08-03T07:41:53;99871.53;;;26.01;89.95
35023;BME280;21214;44.912;8.204;2022-08-03T07:44:19;99866.47;;;26.05;86.43
35023;BME280;21214;44.912;8.204;2022-08-03T07:46:45;99874.69;;;26.10;87.62
35023;BME280;21214;44.912;8.204;2022-08-03T07:49:12;99870.59;;;26.07;89.58
35023;BME280;21214;44.912;8.204;2022-08-03T07:51:38;99869.97;;;26.17;89.14
35023;BME280;21214;44.912;8.204;2022-08-03T07:54:04;99861.53;;;26.25;89.16
35023;BME280;21214;44.912;8.204;2022-08-03T07:56:30;99869.28;;;26.33;89.12
35023;BME280;21214;44.912;8.204;2022-08-03T07:58:56;99869.97;;;26.40;88.60
35023;BME280;21214;44.912;8.204;2022-08-03T08:01:22;99870.44;;;26.49;88.16
35023;BME280;21214;44.912;8.204;2022-08-03T08:03:49;99861.59;;;26.54;88.13
35023;BME280;21214;44.912;8.204;2022-08-03T08:06:15;99874.78;;;26.62;88.13
35023;BME280;21214;44.912;8.204;2022-08-03T08:08:42;99856.97;;;26.66;87.59
35023;BME280;21214;44.912;8.204;2022-08-03T08:11:07;99855.69;;;26.68;86.51
35023;BME280;21214;44.912;8.204;2022-08-03T08:13:33;99863.91;;;26.73;85.91
35023;BME280;21214;44.912;8.204;2022-08-03T08:15:59;99861.63;;;26.82;82.36
35023;BME280;21214;44.912;8.204;2022-08-03T08:18:25;99869.41;;;26.90;80.31
35023;BME280;21214;44.912;8.204;2022-08-03T08:20:54;99863.34;;;27.00;78.78
35023;BME280;21214;44.912;8.204;2022-08-03T08:23:20;99861.66;;;27.10;78.23
35023;BME280;21214;44.912;8.204;2022-08-03T08:25:50;99864.22;;;27.17;77.85
35023;BME280;21214;44.912;8.204;2022-08-03T08:28:20;99857.34;;;27.26;77.45
35023;BME280;21214;44.912;8.204;2022-08-03T08:30:46;99857.53;;;27.36;76.30
35023;BME280;21214;44.912;8.204;2022-08-03T08:33:12;99861.00;;;27.48;75.94
35023;BME280;21214;44.912;8.204;2022-08-03T08:35:40;99869.06;;;27.60;75.82
35023;BME280;21214;44.912;8.204;2022-08-03T08:38:06;99862.44;;;27.67;75.37
35023;BME280;21214;44.912;8.204;2022-08-03T08:40:31;99861.69;;;27.72;72.90
35023;BME280;21214;44.912;8.204;2022-08-03T08:42:58;99866.94;;;27.79;72.62
35023;BME280;21214;44.912;8.204;2022-08-03T08:45:24;99857.00;;;27.84;71.72
35023;BME280;21214;44.912;8.204;2022-08-03T08:47:50;99865.19;;;27.89;71.00
35023;BME280;21214;44.912;8.204;2022-08-03T08:50:19;99864.31;;;27.84;70.80
35023;BME280;21214;44.912;8.204;2022-08-03T08:52:47;99857.56;;;27.86;70.61
35023;BME280;21214;44.912;8.204;2022-08-03T08:55:20;99864.69;;;27.92;70.73
35023;BME280;21214;44.912;8.204;2022-08-03T08:57:48;99861.19;;;27.92;69.47
35023;BME280;21214;44.912;8.204;2022-08-03T09:00:15;99864.22;;;27.95;70.39
35023;BME280;21214;44.912;8.204;2022-08-03T09:02:42;99862.97;;;28.03;70.12
35023;BME280;21214;44.912;8.204;2022-08-03T09:05:17;99862.28;;;28.13;70.42
35023;BME280;21214;44.912;8.204;2022-08-03T09:07:46;99873.88;;;28.25;70.26
35023;BME280;21214;44.912;8.204;2022-08-03T09:10:14;99865.38;;;28.38;68.97
35023;BME280;21214;44.912;8.204;2022-08-03T09:12:46;99868.16;;;28.43;65.37
35023;BME280;21214;44.912;8.204;2022-08-03T09:15:29;99863.88;;;28.47;64.95
35023;BME280;21214;44.912;8.204;2022-08-03T09:17:59;99863.94;;;28.52;65.07
35023;BME280;21214;44.912;8.204;2022-08-03T09:20:27;99860.78;;;28.60;65.32
35023;BME280;21214;44.912;8.204;2022-08-03T09:23:07;99861.66;;;28.66;63.64
35023;BME280;21214;44.912;8.204;2022-08-03T09:25:39;99863.97;;;28.74;63.38
35023;BME280;21214;44.912;8.204;2022-08-03T09:28:13;99866.41;;;28.75;62.90
35023;BME280;21214;44.912;8.204;2022-08-03T09:30:57;99869.72;;;28.77;62.53
35023;BME280;21214;44.912;8.204;2022-08-03T09:33:23;99865.41;;;28.81;62.82
35023;BME280;21214;44.912;8.204;2022-08-03T09:35:49;99857.81;;;28.83;62.87
35023;BME280;21214;44.912;8.204;2022-08-03T09:38:16;99859.47;;;28.84;62.69
35023;BME280;21214;44.912;8.204;2022-08-03T09:40:44;99854.66;;;28.92;60.51
35023;BME280;21214;44.912;8.204;2022-08-03T09:43:10;99857.50;;;29.02;58.66
35023;BME280;21214;44.912;8.204;2022-08-03T09:45:38;99858.09;;;29.09;57.77
35023;BME280;21214;44.912;8.204;2022-08-03T09:50:53;99852.19;;;29.17;56.64
35023;BME280;21214;44.912;8.204;2022-08-03T09:53:20;99852.50;;;29.20;57.43
35023;BME280;21214;44.912;8.204;2022-08-03T09:56:12;99850.09;;;29.24;55.62
35023;BME280;21214;44.912;8.204;2022-08-03T09:58:45;99852.84;;;29.29;56.38
35023;BME280;21214;44.912;8.204;2022-08-03T10:01:12;99850.13;;;29.29;57.44
35023;BME280;21214;44.912;8.204;2022-08-03T10:03:39;99851.31;;;29.33;57.69
35023;BME280;21214;44.912;8.204;2022-08-03T10:06:16;99837.22;;;29.41;57.07
35023;BME280;21214;44.912;8.204;2022-08-03T10:08:49;99845.72;;;29.45;57.50
35023;BME280;21214;44.912;8.204;2022-08-03T10:11:29;99845.44;;;29.46;57.04
35023;BME280;21214;44.912;8.204;2022-08-03T10:13:55;99839.47;;;29.49;57.40
35023;BME280;21214;44.912;8.204;2022-08-03T10:16:21;99842.81;;;29.56;55.82
35023;BME280;21214;44.912;8.204;2022-08-03T10:18:47;99839.31;;;29.61;52.08
35023;BME280;21214;44.912;8.204;2022-08-03T10:21:16;99837.16;;;29.63;52.30
35023;BME280;21214;44.912;8.204;2022-08-03T10:23:44;99834.47;;;29.68;52.50
35023;BME280;21214;44.912;8.204;2022-08-03T10:26:15;99830.66;;;29.69;53.52
35023;BME280;21214;44.912;8.204;2022-08-03T10:28:48;99832.59;;;29.74;53.25
35023;BME280;21214;44.912;8.204;2022-08-03T10:31:15;99827.13;;;29.68;52.34
35023;BME280;21214;44.912;8.204;2022-08-03T10:33:46;99829.88;;;29.74;52.67
35023;BME280;21214;44.912;8.204;2022-08-03T10:36:14;99826.13;;;29.80;52.93
35023;BME280;21214;44.912;8.204;2022-08-03T10:38:47;99827.78;;;29.86;53.20
35023;BME280;21214;44.912;8.204;2022-08-03T10:41:21;99817.19;;;29.89;51.29
35023;BME280;21214;44.912;8.204;2022-08-03T10:44:16;99815.28;;;29.85;50.63
35023;BME280;21214;44.912;8.204;2022-08-03T10:46:43;99811.47;;;29.86;50.83
35023;BME280;21214;44.912;8.204;2022-08-03T10:49:16;99814.53;;;29.94;48.66
35023;BME280;21214;44.912;8.204;2022-08-03T10:51:44;99819.75;;;30.01;48.98
35023;BME280;21214;44.912;8.204;2022-08-03T10:54:38;99807.28;;;30.10;49.30
35023;BME280;21214;44.912;8.204;2022-08-03T10:57:42;99811.94;;;30.15;49.83
35023;BME280;21214;44.912;8.204;2022-08-03T11:00:08;99810.84;;;30.16;47.51
35023;BME280;21214;44.912;8.204;2022-08-03T11:03:12;99804.06;;;30.18;47.86
35023;BME280;21214;44.912;8.204;2022-08-03T11:05:45;99807.56;;;30.14;48.80
35023;BME280;21214;44.912;8.204;2022-08-03T11:08:31;99799.97;;;30.16;48.62
35023;BME280;21214;44.912;8.204;2022-08-03T11:16:35;99785.06;;;30.33;48.19
35023;BME280;21214;44.912;8.204;2022-08-03T11:19:04;99783.72;;;30.46;47.62
35023;BME280;21214;44.912;8.204;2022-08-03T11:30:01;99781.91;;;30.57;45.85
35023;BME280;21214;44.912;8.204;2022-08-03T11:32:55;99774.84;;;30.61;46.12
35023;BME280;21214;44.912;8.204;2022-08-03T11:46:06;99765.59;;;30.62;44.66
35023;BME280;21214;44.912;8.204;2022-08-03T11:48:36;99768.31;;;30.67;44.99
35023;BME280;21214;44.912;8.204;2022-08-03T11:51:04;99765.09;;;30.80;44.65
35023;BME280;21214;44.912;8.204;2022-08-03T11:53:30;99768.91;;;30.94;44.04
35023;BME280;21214;44.912;8.204;2022-08-03T11:56:00;99762.91;;;30.97;41.20
35023;BME280;21214;44.912;8.204;2022-08-03T11:58:28;99755.28;;;30.99;41.54
35023;BME280;21214;44.912;8.204;2022-08-03T12:01:04;99746.06;;;31.10;42.43
35023;BME280;21214;44.912;8.204;2022-08-03T12:03:32;99753.16;;;31.21;42.38
35023;BME280;21214;44.912;8.204;2022-08-03T12:05:58;99748.22;;;31.39;42.27
35023;BME280;21214;44.912;8.204;2022-08-03T12:10:53;99739.47;;;31.57;40.73
35023;BME280;21214;44.912;8.204;2022-08-03T12:13:20;99738.91;;;31.70;41.32
35023;BME280;21214;44.912;8.204;2022-08-03T12:15:54;99733.38;;;31.95;41.21
35023;BME280;21214;44.912;8.204;2022-08-03T12:18:20;99727.84;;;32.26;39.81
35023;BME280;21214;44.912;8.204;2022-08-03T12:20:48;99728.75;;;32.55;37.48
35023;BME280;21214;44.912;8.204;2022-08-03T12:23:15;99728.63;;;32.75;37.44
35023;BME280;21214;44.912;8.204;2022-08-03T12:25:42;99722.72;;;33.02;36.63
35023;BME280;21214;44.912;8.204;2022-08-03T12:28:19;99717.91;;;33.23;36.40
35023;BME280;21214;44.912;8.204;2022-08-03T12:30:50;99717.59;;;33.53;36.57
35023;BME280;21214;44.912;8.204;2022-08-03T12:33:24;99712.19;;;33.77;36.34
35023;BME280;21214;44.912;8.204;2022-08-03T12:38:28;99717.13;;;34.41;35.78
35023;BME280;21214;44.912;8.204;2022-08-03T12:40:58;99715.56;;;34.54;35.63
35023;BME280;21214;44.912;8.204;2022-08-03T12:43:24;99715.41;;;34.64;34.16
35023;BME280;21214;44.912;8.204;2022-08-03T12:45:50;99712.84;;;34.73;34.47
35023;BME280;21214;44.912;8.204;2022-08-03T12:48:16;99713.13;;;34.90;33.48
35023;BME280;21214;44.912;8.204;2022-08-03T12:50:41;99703.88;;;35.18;32.92
35023;BME280;21214;44.912;8.204;2022-08-03T12:53:09;99704.91;;;34.90;33.75
35023;BME280;21214;44.912;8.204;2022-08-03T12:55:36;99695.81;;;34.76;33.57
35023;BME280;21214;44.912;8.204;2022-08-03T12:58:03;99706.50;;;35.10;34.17
35023;BME280;21214;44.912;8.204;2022-08-03T13:00:30;99703.75;;;35.42;32.27
35023;BME280;21214;44.912;8.204;2022-08-03T13:03:05;99693.44;;;35.80;32.46
35023;BME280;21214;44.912;8.204;2022-08-03T13:05:44;99693.28;;;36.12;30.66
35023;BME280;21214;44.912;8.204;2022-08-03T13:08:20;99685.34;;;36.61;29.89
35023;BME280;21214;44.912;8.204;2022-08-03T13:10:47;99681.72;;;37.10;29.61
35023;BME280;21214;44.912;8.204;2022-08-03T13:13:12;99675.31;;;37.23;29.50
35023;BME280;21214;44.912;8.204;2022-08-03T13:15:38;99677.56;;;37.52;29.13
35023;BME280;21214;44.912;8.204;2022-08-03T13:18:04;99681.06;;;37.75;28.70
35023;BME280;21214;44.912;8.204;2022-08-03T13:20:30;99674.69;;;38.05;27.76
35023;BME280;21214;44.912;8.204;2022-08-03T13:22:56;99670.53;;;38.50;27.13
35023;BME280;21214;44.912;8.204;2022-08-03T13:25:22;99678.28;;;39.00;26.58
35023;BME280;21214;44.912;8.204;2022-08-03T13:27:47;99669.31;;;39.67;25.93
35023;BME280;21214;44.912;8.204;2022-08-03T13:30:14;99668.19;;;40.18;25.33
35023;BME280;21214;44.912;8.204;2022-08-03T13:32:40;99663.19;;;40.95;23.78
35023;BME280;21214;44.912;8.204;2022-08-03T13:35:07;99662.28;;;41.60;23.63
35023;BME280;21214;44.912;8.204;2022-08-03T13:37:34;99661.28;;;41.77;23.46
35023;BME280;21214;44.912;8.204;2022-08-03T13:40:01;99658.72;;;41.96;22.76
35023;BME280;21214;44.912;8.204;2022-08-03T13:42:32;99650.56;;;42.39;21.76
35023;BME280;21214;44.912;8.204;2022-08-03T13:44:59;99657.63;;;42.65;21.63
35023;BME280;21214;44.912;8.204;2022-08-03T13:47:25;99651.34;;;42.68;21.03
35023;BME280;21214;44.912;8.204;2022-08-03T13:49:51;99644.78;;;42.60;21.15